sensor_id;sensor_type;location;lat;lon;timestamp;pressure;altitude;pressure_sealevel;temperature;humidity
58739;BME280;44512;53.046;18.604;2023-07-24T00:06:05;100746.41;;;23.09;41.33
58739;BME280;44512;53.046;18.604;2023-07-24T00:16:33;100750.34;;;22.98;41.40
58739;BME280;44512;53.046;18.604;2023-07-24T00:27:01;100757.80;;;22.87;41.50
58739;BME280;44512;53.046;18.604;2023-07-24T00:37:30;100753.14;;;22.77;41.48
58739;BME280;44512;53.046;18.604;2023-07-24T00:47:59;100765.33;;;22.66;41.55
58739;BME280;44512;53.046;18.604;2023-07-24T00:58:26;100761.47;;;22.57;41.60
58739;BME280;44512;53.046;18.604;2023-07-24T01:08:55;100757.62;;;22.48;41.75
58739;BME280;44512;53.046;18.604;2023-07-24T01:29:51;100759.34;;;22.23;42.09
58739;BME280;44512;53.046;18.604;2023-07-24T01:40:21;100759.34;;;22.13;42.39
58739;BME280;44512;53.046;18.604;2023-07-24T01:50:48;100748.01;;;21.99;42.89
58739;BME280;44512;53.046;18.604;2023-07-24T02:01:16;100750.77;;;21.84;43.32
58739;BME280;44512;53.046;18.604;2023-07-24T02:11:45;100735.87;;;21.70;43.35
58739;BME280;44512;53.046;18.604;2023-07-24T02:22:13;100738.89;;;21.58;43.67
58739;BME280;44512;53.046;18.604;2023-07-24T02:32:41;100754.03;;;21.45;43.87
58739;BME280;44512;53.046;18.604;2023-07-24T02:43:10;100743.23;;;21.33;44.09
58739;BME280;44512;53.046;18.604;2023-07-24T02:53:38;100747.05;;;21.27;44.22
58739;BME280;44512;53.046;18.604;2023-07-24T03:04:06;100743.45;;;21.22;44.33
58739;BME280;44512;53.046;18.604;2023-07-24T03:14:35;100736.29;;;21.16;44.41
58739;BME280;44512;53.046;18.604;2023-07-24T03:25:04;100747.00;;;21.12;44.54
58739;BME280;44512;53.046;18.604;2023-07-24T03:35:32;100734.87;;;21.08;44.72
58739;BME280;44512;53.046;18.604;2023-07-24T03:46:00;100737.59;;;21.03;44.88
58739;BME280;44512;53.046;18.604;2023-07-24T03:56:28;100742.03;;;21.04;45.17
58739;BME280;44512;53.046;18.604;2023-07-24T04:06:57;100733.78;;;21.04;45.51
58739;BME280;44512;53.046;18.604;2023-07-24T04:17:25;100739.80;;;21.01;45.89
58739;BME280;44512;53.046;18.604;2023-07-24T04:27:53;100737.87;;;20.96;46.37
58739;BME280;44512;53.046;18.604;2023-07-24T04:38:22;100742.00;;;20.94;46.78
58739;BME280;44512;53.046;18.604;2023-07-24T04:48:50;100739.24;;;20.94;47.15
58739;BME280;44512;53.046;18.604;2023-07-24T04:59:18;100742.81;;;20.94;47.58
58739;BME280;44512;53.046;18.604;2023-07-24T05:09:47;100757.41;;;20.95;47.99
58739;BME280;44512;53.046;18.604;2023-07-24T05:20:15;100760.39;;;20.93;48.58
58739;BME280;44512;53.046;18.604;2023-07-24T05:30:43;100748.79;;;20.81;49.67
58739;BME280;44512;53.046;18.604;2023-07-24T05:41:12;100772.23;;;20.89;50.50
58739;BME280;44512;53.046;18.604;2023-07-24T05:51:40;100791.48;;;20.89;51.72
58739;BME280;44512;53.046;18.604;2023-07-24T06:02:08;100777.16;;;20.87;53.92
58739;BME280;44512;53.046;18.604;2023-07-24T06:12:37;100776.91;;;20.88;55.42
58739;BME280;44512;53.046;18.604;2023-07-24T06:23:05;100774.98;;;20.89;56.64
58739;BME280;44512;53.046;18.604;2023-07-24T06:33:34;100791.74;;;20.87;57.60
58739;BME280;44512;53.046;18.604;2023-07-24T06:44:02;100792.84;;;20.86;58.15
58739;BME280;44512;53.046;18.604;2023-07-24T06:54:30;100792.29;;;20.84;58.14
58739;BME280;44512;53.046;18.604;2023-07-24T07:04:59;100765.02;;;20.83;58.97
58739;BME280;44512;53.046;18.604;2023-07-24T07:15:27;100739.22;;;20.89;59.71
58739;BME280;44512;53.046;18.604;2023-07-24T07:25:55;100731.54;;;20.96;60.27
58739;BME280;44512;53.046;18.604;2023-07-24T07:36:24;100713.94;;;21.02;60.88
58739;BME280;44512;53.046;18.604;2023-07-24T07:46:52;100714.53;;;21.09;61.15
58739;BME280;44512;53.046;18.604;2023-07-24T07:57:20;100720.32;;;21.18;61.69
58739;BME280;44512;53.046;18.604;2023-07-24T08:07:49;100683.44;;;21.24;61.84
58739;BME280;44512;53.046;18.604;2023-07-24T08:18:17;100687.03;;;21.29;62.11
58739;BME280;44512;53.046;18.604;2023-07-24T08:28:45;100687.65;;;21.37;62.42
58739;BME280;44512;53.046;18.604;2023-07-24T08:39:14;100670.02;;;21.43;62.80
58739;BME280;44512;53.046;18.604;2023-07-24T08:49:43;100657.37;;;21.52;62.81
58739;BME280;44512;53.046;18.604;2023-07-24T09:00:11;100649.11;;;21.62;63.01
58739;BME280;44512;53.046;18.604;2023-07-24T09:10:39;100626.79;;;21.74;62.83
58739;BME280;44512;53.046;18.604;2023-07-24T09:21:08;100609.95;;;21.91;62.29
58739;BME280;44512;53.046;18.604;2023-07-24T09:31:36;100592.57;;;22.10;61.14
58739;BME280;44512;53.046;18.604;2023-07-24T09:42:05;100593.32;;;22.31;58.71
58739;BME280;44512;53.046;18.604;2023-07-24T09:52:35;100583.62;;;22.49;55.89
58739;BME280;44512;53.046;18.604;2023-07-24T10:03:01;100573.81;;;22.72;52.92
58739;BME280;44512;53.046;18.604;2023-07-24T10:13:29;100555.79;;;22.95;52.28
58739;BME280;44512;53.046;18.604;2023-07-24T10:24:00;100544.30;;;23.17;50.42
58739;BME280;44512;53.046;18.604;2023-07-24T10:55:23;100508.34;;;23.80;47.92
58739;BME280;44512;53.046;18.604;2023-07-24T11:05:51;100500.63;;;24.01;46.95
58739;BME280;44512;53.046;18.604;2023-07-24T11:16:19;100496.16;;;24.24;45.87
58739;BME280;44512;53.046;18.604;2023-07-24T11:26:47;100463.34;;;24.41;45.52
58739;BME280;44512;53.046;18.604;2023-07-24T11:37:16;100467.52;;;24.58;44.95
58739;BME280;44512;53.046;18.604;2023-07-24T11:47:48;100470.28;;;24.77;44.22
58739;BME280;44512;53.046;18.604;2023-07-24T11:58:15;100481.84;;;24.98;42.86
58739;BME280;44512;53.046;18.604;2023-07-24T12:08:40;100460.48;;;25.17;42.51
58739;BME280;44512;53.046;18.604;2023-07-24T12:19:09;100451.79;;;25.37;40.94
58739;BME280;44512;53.046;18.604;2023-07-24T12:29:37;100434.78;;;25.58;40.00
58739;BME280;44512;53.046;18.604;2023-07-24T12:40:06;100425.37;;;25.86;39.04
58739;BME280;44512;53.046;18.604;2023-07-24T12:50:34;100405.77;;;26.19;39.18
58739;BME280;44512;53.046;18.604;2023-07-24T13:01:02;100405.81;;;26.41;38.92
58739;BME280;44512;53.046;18.604;2023-07-24T13:11:30;100385.27;;;26.65;37.19
58739;BME280;44512;53.046;18.604;2023-07-24T13:21:59;100349.27;;;26.82;37.74
58739;BME280;44512;53.046;18.604;2023-07-24T13:32:27;100355.29;;;27.07;37.27
58739;BME280;44512;53.046;18.604;2023-07-24T13:42:55;100336.31;;;27.31;36.67
58739;BME280;44512;53.046;18.604;2023-07-24T13:53:24;100323.13;;;27.63;35.16
58739;BME280;44512;53.046;18.604;2023-07-24T14:03:52;100326.80;;;27.89;35.45
58739;BME280;44512;53.046;18.604;2023-07-24T14:14:20;100322.05;;;28.16;34.42
58739;BME280;44512;53.046;18.604;2023-07-24T14:24:48;100314.22;;;28.35;34.01
58739;BME280;44512;53.046;18.604;2023-07-24T14:35:17;100307.66;;;28.48;33.40
58739;BME280;44512;53.046;18.604;2023-07-24T14:51:04;100264.16;;;28.73;33.80
58739;BME280;44512;53.046;18.604;2023-07-24T15:01:32;100245.70;;;29.07;32.53
58739;BME280;44512;53.046;18.604;2023-07-24T15:12:01;100231.61;;;29.33;31.68
58739;BME280;44512;53.046;18.604;2023-07-24T15:22:29;100212.46;;;29.52;32.01
58739;BME280;44512;53.046;18.604;2023-07-24T15:32:57;100199.13;;;29.79;31.52
58739;BME280;44512;53.046;18.604;2023-07-24T15:43:26;100176.19;;;30.06;31.58
58739;BME280;44512;53.046;18.604;2023-07-24T15:53:54;100168.38;;;30.33;31.07
58739;BME280;44512;53.046;18.604;2023-07-24T16:04:22;100157.83;;;30.51;30.39
58739;BME280;44512;53.046;18.604;2023-07-24T16:14:55;100134.89;;;30.57;29.82
58739;BME280;44512;53.046;18.604;2023-07-24T16:25:23;100105.34;;;30.56;29.93
58739;BME280;44512;53.046;18.604;2023-07-24T16:35:52;100070.66;;;30.57;30.08
58739;BME280;44512;53.046;18.604;2023-07-24T16:46:20;100034.80;;;30.59;30.24
58739;BME280;44512;53.046;18.604;2023-07-24T16:56:48;100017.23;;;30.59;30.39
58739;BME280;44512;53.046;18.604;2023-07-24T17:07:16;100013.31;;;30.48;30.05
58739;BME280;44512;53.046;18.604;2023-07-24T17:17:45;100013.66;;;30.34;30.39
58739;BME280;44512;53.046;18.604;2023-07-24T17:28:13;100011.61;;;30.19;30.17
58739;BME280;44512;53.046;18.604;2023-07-24T17:38:41;100026.23;;;30.03;30.34
58739;BME280;44512;53.046;18.604;2023-07-24T17:49:10;100020.97;;;29.90;30.30
58739;BME280;44512;53.046;18.604;2023-07-24T17:59:38;100016.20;;;29.78;30.04
58739;BME280;44512;53.046;18.604;2023-07-24T18:10:07;100010.59;;;29.66;30.20
58739;BME280;44512;53.046;18.604;2023-07-24T18:20:35;99994.30;;;29.55;30.64
58739;BME280;44512;53.046;18.604;2023-07-24T18:31:03;99982.07;;;29.48;31.04
58739;BME280;44512;53.046;18.604;2023-07-24T18:41:31;99984.95;;;29.39;31.28
58739;BME280;44512;53.046;18.604;2023-07-24T18:52:00;99970.29;;;29.30;31.47
58739;BME280;44512;53.046;18.604;2023-07-24T19:02:28;99968.41;;;29.22;31.79
58739;BME280;44512;53.046;18.604;2023-07-24T19:12:56;99966.52;;;29.14;31.83
58739;BME280;44512;53.046;18.604;2023-07-24T19:23:25;99973.33;;;29.04;32.07
58739;BME280;44512;53.046;18.604;2023-07-24T19:33:53;99965.08;;;28.95;32.03
58739;BME280;44512;53.046;18.604;2023-07-24T19:44:21;99948.05;;;28.88;32.19
58739;BME280;44512;53.046;18.604;2023-07-24T19:54:50;99976.00;;;28.79;32.41
58739;BME280;44512;53.046;18.604;2023-07-24T20:05:18;99994.95;;;28.65;33.19
58739;BME280;44512;53.046;18.604;2023-07-24T20:15:46;100003.09;;;28.49;35.95
58739;BME280;44512;53.046;18.604;2023-07-24T20:26:15;99993.05;;;28.27;37.55
58739;BME280;44512;53.046;18.604;2023-07-24T20:36:43;100010.70;;;28.02;38.52
58739;BME280;44512;53.046;18.604;2023-07-24T20:47:11;99995.41;;;27.78;39.36
58739;BME280;44512;53.046;18.604;2023-07-24T20:57:40;99992.04;;;27.56;40.06
58739;BME280;44512;53.046;18.604;2023-07-24T21:08:08;99986.51;;;27.38;40.74
58739;BME280;44512;53.046;18.604;2023-07-24T21:18:36;99990.96;;;27.22;41.33
58739;BME280;44512;53.046;18.604;2023-07-24T21:29:05;99993.24;;;27.03;41.89
58739;BME280;44512;53.046;18.604;2023-07-24T21:39:33;100002.87;;;26.88;42.39
58739;BME280;44512;53.046;18.604;2023-07-24T21:50:02;99998.14;;;26.71;42.87
58739;BME280;44512;53.046;18.604;2023-07-24T22:00:29;100004.98;;;26.56;43.47
58739;BME280;44512;53.046;18.604;2023-07-24T22:10:58;100017.37;;;26.41;43.97
58739;BME280;44512;53.046;18.604;2023-07-24T22:21:26;100032.16;;;26.28;44.13
58739;BME280;44512;53.046;18.604;2023-07-24T22:31:54;100027.55;;;26.15;44.38
58739;BME280;44512;53.046;18.604;2023-07-24T22:42:23;100032.08;;;26.02;44.69
58739;BME280;44512;53.046;18.604;2023-07-24T22:52:51;100045.55;;;25.86;45.07
58739;BME280;44512;53.046;18.604;2023-07-24T23:03:19;100023.10;;;25.74;45.39
58739;BME280;44512;53.046;18.604;2023-07-24T23:13:48;100027.29;;;25.63;46.22
58739;BME280;44512;53.046;18.604;2023-07-24T23:24:16;99973.80;;;25.54;48.07
58739;BME280;44512;53.046;18.604;2023-07-24T23:34:44;99950.26;;;25.42;49.84
58739;BME280;44512;53.046;18.604;2023-07-24T23:45:13;99942.54;;;25.31;50.50
58739;BME280;44512;53.046;18.604;2023-07-24T23:55:41;99922.12;;;25.18;51.49
